sensor_id;sensor_type;location;lat;lon;timestamp;pressure;altitude;pressure_sealevel;temperature;humidity
65832;BME280;52593;42.648;23.332;2022-12-18T00:01:29;95278.44;;;5.27;100.00
65832;BME280;52593;42.648;23.332;2022-12-18T00:03:56;95292.25;;;5.21;100.00
65832;BME280;52593;42.648;23.332;2022-12-18T00:06:23;95286.94;;;5.21;100.00
65832;BME280;52593;42.648;23.332;2022-12-18T00:08:49;95287.28;;;5.07;100.00
65832;BME280;52593;42.648;23.332;2022-12-18T00:11:18;95296.22;;;5.06;100.00
65832;BME280;52593;42.648;23.332;2022-12-18T00:13:44;95305.50;;;4.90;100.00
65832;BME280;52593;42.648;23.332;2022-12-18T00:16:12;95302.63;;;4.82;100.00
65832;BME280;52593;42.648;23.332;2022-12-18T00:18:37;95300.97;;;4.81;100.00
65832;BME280;52593;42.648;23.332;2022-12-18T00:21:05;95309.31;;;4.76;100.00
65832;BME280;52593;42.648;23.332;2022-12-18T00:23:33;95309.44;;;4.75;100.00
65832;BME280;52593;42.648;23.332;2022-12-18T00:26:00;95321.19;;;4.82;100.00
65832;BME280;52593;42.648;23.332;2022-12-18T00:28:25;95314.88;;;4.73;100.00
65832;BME280;52593;42.648;23.332;2022-12-18T00:30:50;95317.16;;;4.67;100.00
65832;BME280;52593;42.648;23.332;2022-12-18T00:33:17;95319.25;;;4.63;100.00
65832;BME280;52593;42.648;23.332;2022-12-18T00:35:42;95315.78;;;4.62;100.00
65832;BME280;52593;42.648;23.332;2022-12-18T00:38:08;95320.81;;;4.66;100.00
65832;BME280;52593;42.648;23.332;2022-12-18T00:43:17;95321.06;;;4.62;100.00
65832;BME280;52593;42.648;23.332;2022-12-18T00:45:43;95332.13;;;4.68;100.00
65832;BME280;52593;42.648;23.332;2022-12-18T00:48:08;95324.31;;;4.55;100.00
65832;BME280;52593;42.648;23.332;2022-12-18T00:50:33;95337.44;;;4.56;100.00
65832;BME280;52593;42.648;23.332;2022-12-18T00:52:59;95333.00;;;4.57;100.00
65832;BME280;52593;42.648;23.332;2022-12-18T00:55:24;95336.97;;;4.62;100.00
65832;BME280;52593;42.648;23.332;2022-12-18T00:57:51;95335.84;;;4.65;100.00
65832;BME280;52593;42.648;23.332;2022-12-18T01:00:17;95344.28;;;4.70;100.00
65832;BME280;52593;42.648;23.332;2022-12-18T01:02:43;95341.53;;;4.60;100.00
65832;BME280;52593;42.648;23.332;2022-12-18T01:05:10;95346.84;;;4.60;100.00
65832;BME280;52593;42.648;23.332;2022-12-18T01:07:36;95350.56;;;4.58;100.00
65832;BME280;52593;42.648;23.332;2022-12-18T01:10:03;95345.47;;;4.45;100.00
65832;BME280;52593;42.648;23.332;2022-12-18T01:12:28;95351.97;;;4.41;100.00
65832;BME280;52593;42.648;23.332;2022-12-18T01:14:54;95359.59;;;4.34;100.00
65832;BME280;52593;42.648;23.332;2022-12-18T01:17:19;95357.25;;;4.20;100.00
65832;BME280;52593;42.648;23.332;2022-12-18T01:19:44;95358.31;;;4.17;100.00
65832;BME280;52593;42.648;23.332;2022-12-18T01:22:10;95358.13;;;3.98;100.00
65832;BME280;52593;42.648;23.332;2022-12-18T01:24:35;95363.28;;;3.99;100.00
65832;BME280;52593;42.648;23.332;2022-12-18T01:27:00;95361.50;;;4.00;100.00
65832;BME280;52593;42.648;23.332;2022-12-18T01:29:26;95369.91;;;3.93;100.00
65832;BME280;52593;42.648;23.332;2022-12-18T01:31:55;95372.22;;;3.87;100.00
65832;BME280;52593;42.648;23.332;2022-12-18T01:34:20;95376.56;;;3.88;100.00
65832;BME280;52593;42.648;23.332;2022-12-18T01:36:46;95371.13;;;3.78;100.00
65832;BME280;52593;42.648;23.332;2022-12-18T01:39:13;95380.88;;;3.78;100.00
65832;BME280;52593;42.648;23.332;2022-12-18T01:41:38;95383.56;;;3.66;100.00
65832;BME280;52593;42.648;23.332;2022-12-18T01:49:45;95388.13;;;3.53;100.00
65832;BME280;52593;42.648;23.332;2022-12-18T01:52:10;95386.31;;;3.53;100.00
65832;BME280;52593;42.648;23.332;2022-12-18T01:54:36;95387.75;;;3.57;100.00
65832;BME280;52593;42.648;23.332;2022-12-18T01:57:01;95389.22;;;3.62;100.00
65832;BME280;52593;42.648;23.332;2022-12-18T01:59:27;95387.03;;;3.55;100.00
65832;BME280;52593;42.648;23.332;2022-12-18T02:01:55;95385.22;;;3.67;100.00
65832;BME280;52593;42.648;23.332;2022-12-18T02:06:51;95394.97;;;3.55;100.00
65832;BME280;52593;42.648;23.332;2022-12-18T02:09:26;95400.28;;;3.55;100.00
65832;BME280;52593;42.648;23.332;2022-12-18T02:12:19;95407.59;;;3.52;100.00
65832;BME280;52593;42.648;23.332;2022-12-18T02:17:17;95406.41;;;3.45;100.00
65832;BME280;52593;42.648;23.332;2022-12-18T02:28:17;95414.56;;;3.42;100.00
65832;BME280;52593;42.648;23.332;2022-12-18T02:30:47;95407.00;;;3.48;100.00
65832;BME280;52593;42.648;23.332;2022-12-18T02:33:14;95403.88;;;3.54;100.00
65832;BME280;52593;42.648;23.332;2022-12-18T02:35:40;95409.53;;;3.38;100.00
65832;BME280;52593;42.648;23.332;2022-12-18T02:38:07;95425.41;;;3.38;100.00
65832;BME280;52593;42.648;23.332;2022-12-18T02:40:33;95429.22;;;3.46;100.00
65832;BME280;52593;42.648;23.332;2022-12-18T02:43:06;95419.63;;;3.45;100.00
65832;BME280;52593;42.648;23.332;2022-12-18T02:45:32;95430.69;;;3.38;100.00
65832;BME280;52593;42.648;23.332;2022-12-18T02:47:57;95423.34;;;3.31;100.00
65832;BME280;52593;42.648;23.332;2022-12-18T02:50:32;95422.16;;;3.46;100.00
65832;BME280;52593;42.648;23.332;2022-12-18T02:53:24;95427.44;;;3.46;100.00
65832;BME280;52593;42.648;23.332;2022-12-18T02:56:02;95426.47;;;3.36;100.00
65832;BME280;52593;42.648;23.332;2022-12-18T03:01:10;95422.72;;;3.27;100.00
65832;BME280;52593;42.648;23.332;2022-12-18T03:03:44;95429.41;;;3.20;100.00
65832;BME280;52593;42.648;23.332;2022-12-18T03:06:33;95433.53;;;3.24;100.00
65832;BME280;52593;42.648;23.332;2022-12-18T03:09:07;95442.75;;;3.18;100.00
65832;BME280;52593;42.648;23.332;2022-12-18T03:11:35;95446.84;;;3.11;100.00
65832;BME280;52593;42.648;23.332;2022-12-18T03:14:22;95448.97;;;3.06;100.00
65832;BME280;52593;42.648;23.332;2022-12-18T03:16:51;95453.91;;;3.11;100.00
65832;BME280;52593;42.648;23.332;2022-12-18T03:19:21;95444.66;;;3.05;100.00
65832;BME280;52593;42.648;23.332;2022-12-18T03:21:52;95451.50;;;3.08;100.00
65832;BME280;52593;42.648;23.332;2022-12-18T03:24:19;95444.56;;;3.07;100.00
65832;BME280;52593;42.648;23.332;2022-12-18T03:26:47;95446.22;;;3.08;100.00
65832;BME280;52593;42.648;23.332;2022-12-18T03:29:25;95449.72;;;3.08;100.00
65832;BME280;52593;42.648;23.332;2022-12-18T03:32:02;95450.09;;;3.15;100.00
65832;BME280;52593;42.648;23.332;2022-12-18T03:34:32;95455.88;;;3.20;100.00
65832;BME280;52593;42.648;23.332;2022-12-18T03:36:58;95460.94;;;3.23;100.00
65832;BME280;52593;42.648;23.332;2022-12-18T03:39:24;95467.91;;;3.24;100.00
65832;BME280;52593;42.648;23.332;2022-12-18T03:47:32;95484.25;;;3.18;98.30
65832;BME280;52593;42.648;23.332;2022-12-18T03:51:02;95487.00;;;3.16;98.45
65832;BME280;52593;42.648;23.332;2022-12-18T03:54:07;95488.41;;;3.09;96.97
65832;BME280;52593;42.648;23.332;2022-12-18T03:56:03;95502.84;;;3.05;97.81
65832;BME280;52593;42.648;23.332;2022-12-18T03:58:31;95509.56;;;3.09;97.26
65832;BME280;52593;42.648;23.332;2022-12-18T04:01:02;95505.03;;;3.11;97.06
65832;BME280;52593;42.648;23.332;2022-12-18T04:03:29;95501.06;;;3.17;97.41
65832;BME280;52593;42.648;23.332;2022-12-18T04:05:58;95497.31;;;3.08;97.36
65832;BME280;52593;42.648;23.332;2022-12-18T04:08:25;95506.53;;;3.02;97.75
65832;BME280;52593;42.648;23.332;2022-12-18T04:10:51;95510.03;;;3.03;97.52
65832;BME280;52593;42.648;23.332;2022-12-18T04:13:43;95515.19;;;3.04;96.99
65832;BME280;52593;42.648;23.332;2022-12-18T04:16:08;95519.16;;;2.99;96.62
65832;BME280;52593;42.648;23.332;2022-12-18T04:18:35;95523.09;;;2.93;96.16
65832;BME280;52593;42.648;23.332;2022-12-18T04:21:01;95522.97;;;2.95;96.46
65832;BME280;52593;42.648;23.332;2022-12-18T04:23:26;95521.16;;;2.95;96.08
65832;BME280;52593;42.648;23.332;2022-12-18T04:25:52;95522.53;;;3.01;95.45
65832;BME280;52593;42.648;23.332;2022-12-18T04:28:17;95527.69;;;3.02;95.02
65832;BME280;52593;42.648;23.332;2022-12-18T04:30:43;95524.69;;;2.96;94.17
65832;BME280;52593;42.648;23.332;2022-12-18T04:33:12;95529.22;;;2.94;94.70
65832;BME280;52593;42.648;23.332;2022-12-18T04:35:39;95538.78;;;2.83;93.65
65832;BME280;52593;42.648;23.332;2022-12-18T04:38:06;95539.28;;;2.89;93.95
65832;BME280;52593;42.648;23.332;2022-12-18T04:40:33;95542.16;;;2.85;93.85
65832;BME280;52593;42.648;23.332;2022-12-18T04:42:58;95546.72;;;2.83;93.03
65832;BME280;52593;42.648;23.332;2022-12-18T04:45:24;95557.97;;;2.74;93.16
65832;BME280;52593;42.648;23.332;2022-12-18T04:47:49;95557.53;;;2.80;93.04
65832;BME280;52593;42.648;23.332;2022-12-18T04:50:15;95557.53;;;2.80;93.29
65832;BME280;52593;42.648;23.332;2022-12-18T04:52:40;95552.00;;;2.83;93.56
65832;BME280;52593;42.648;23.332;2022-12-18T04:55:05;95562.13;;;2.90;92.39
65832;BME280;52593;42.648;23.332;2022-12-18T04:57:31;95555.88;;;2.91;92.24
65832;BME280;52593;42.648;23.332;2022-12-18T04:59:56;95569.09;;;2.91;91.92
65832;BME280;52593;42.648;23.332;2022-12-18T05:02:22;95568.31;;;2.77;91.77
65832;BME280;52593;42.648;23.332;2022-12-18T05:04:47;95572.34;;;2.70;91.23
65832;BME280;52593;42.648;23.332;2022-12-18T05:07:12;95573.28;;;2.69;91.35
65832;BME280;52593;42.648;23.332;2022-12-18T05:09:38;95580.44;;;2.80;91.77
65832;BME280;52593;42.648;23.332;2022-12-18T05:12:03;95574.44;;;2.78;91.33
65832;BME280;52593;42.648;23.332;2022-12-18T05:14:29;95586.41;;;2.71;91.25
65832;BME280;52593;42.648;23.332;2022-12-18T05:16:54;95588.59;;;2.77;91.40
65832;BME280;52593;42.648;23.332;2022-12-18T05:19:20;95587.25;;;2.71;90.90
65832;BME280;52593;42.648;23.332;2022-12-18T05:21:45;95592.13;;;2.64;90.65
65832;BME280;52593;42.648;23.332;2022-12-18T05:24:11;95592.88;;;2.66;91.36
65832;BME280;52593;42.648;23.332;2022-12-18T05:26:36;95600.47;;;2.58;90.93
65832;BME280;52593;42.648;23.332;2022-12-18T05:29:02;95603.84;;;2.60;91.81
65832;BME280;52593;42.648;23.332;2022-12-18T05:31:27;95610.53;;;2.53;91.77
65832;BME280;52593;42.648;23.332;2022-12-18T05:33:53;95619.63;;;2.49;91.93
65832;BME280;52593;42.648;23.332;2022-12-18T05:36:19;95625.84;;;2.48;92.25
65832;BME280;52593;42.648;23.332;2022-12-18T05:38:44;95626.50;;;2.52;92.09
65832;BME280;52593;42.648;23.332;2022-12-18T05:41:10;95627.13;;;2.55;91.90
65832;BME280;52593;42.648;23.332;2022-12-18T05:43:37;95629.53;;;2.58;92.18
65832;BME280;52593;42.648;23.332;2022-12-18T05:46:10;95632.63;;;2.65;92.04
65832;BME280;52593;42.648;23.332;2022-12-18T05:48:36;95632.91;;;2.60;91.30
65832;BME280;52593;42.648;23.332;2022-12-18T05:51:14;95632.00;;;2.48;89.71
65832;BME280;52593;42.648;23.332;2022-12-18T05:53:41;95632.97;;;2.35;90.03
65832;BME280;52593;42.648;23.332;2022-12-18T05:56:09;95635.38;;;2.25;90.84
65832;BME280;52593;42.648;23.332;2022-12-18T05:58:35;95644.03;;;2.14;90.94
65832;BME280;52593;42.648;23.332;2022-12-18T06:01:29;95648.06;;;2.20;91.84
65832;BME280;52593;42.648;23.332;2022-12-18T06:03:55;95650.50;;;2.23;91.93
65832;BME280;52593;42.648;23.332;2022-12-18T06:06:29;95638.03;;;2.25;91.66
65832;BME280;52593;42.648;23.332;2022-12-18T06:08:55;95649.97;;;2.30;92.03
65832;BME280;52593;42.648;23.332;2022-12-18T06:11:23;95660.94;;;2.37;91.43
65832;BME280;52593;42.648;23.332;2022-12-18T06:13:50;95654.63;;;2.27;91.60
65832;BME280;52593;42.648;23.332;2022-12-18T06:16:16;95657.38;;;2.25;91.76
65832;BME280;52593;42.648;23.332;2022-12-18T06:18:41;95653.75;;;2.26;91.56
65832;BME280;52593;42.648;23.332;2022-12-18T06:21:07;95656.75;;;2.35;91.84
65832;BME280;52593;42.648;23.332;2022-12-18T06:23:32;95653.78;;;2.39;90.99
65832;BME280;52593;42.648;23.332;2022-12-18T06:25:57;95663.38;;;2.40;91.01
65832;BME280;52593;42.648;23.332;2022-12-18T06:28:23;95664.75;;;2.46;91.53
65832;BME280;52593;42.648;23.332;2022-12-18T06:30:49;95661.78;;;2.50;91.04
65832;BME280;52593;42.648;23.332;2022-12-18T06:33:15;95670.66;;;2.49;91.23
65832;BME280;52593;42.648;23.332;2022-12-18T06:35:41;95674.50;;;2.45;90.52
65832;BME280;52593;42.648;23.332;2022-12-18T06:38:06;95677.22;;;2.44;90.64
65832;BME280;52593;42.648;23.332;2022-12-18T06:40:32;95679.34;;;2.52;90.71
65832;BME280;52593;42.648;23.332;2022-12-18T06:42:58;95682.19;;;2.61;90.36
65832;BME280;52593;42.648;23.332;2022-12-18T06:45:23;95682.72;;;2.66;89.64
65832;BME280;52593;42.648;23.332;2022-12-18T06:47:49;95691.59;;;2.65;89.00
65832;BME280;52593;42.648;23.332;2022-12-18T06:50:15;95687.91;;;2.68;88.71
65832;BME280;52593;42.648;23.332;2022-12-18T06:52:40;95693.91;;;2.70;89.08
65832;BME280;52593;42.648;23.332;2022-12-18T06:55:06;95703.97;;;2.65;88.37
65832;BME280;52593;42.648;23.332;2022-12-18T06:57:33;95695.81;;;2.55;87.67
65832;BME280;52593;42.648;23.332;2022-12-18T06:59:58;95697.19;;;2.61;88.36
65832;BME280;52593;42.648;23.332;2022-12-18T07:02:23;95710.00;;;2.67;87.48
65832;BME280;52593;42.648;23.332;2022-12-18T07:04:49;95711.56;;;2.57;87.47
65832;BME280;52593;42.648;23.332;2022-12-18T07:07:14;95699.41;;;2.54;87.53
65832;BME280;52593;42.648;23.332;2022-12-18T07:09:40;95716.22;;;2.53;86.18
65832;BME280;52593;42.648;23.332;2022-12-18T07:12:06;95712.94;;;2.49;87.02
65832;BME280;52593;42.648;23.332;2022-12-18T07:14:32;95719.19;;;2.48;87.02
65832;BME280;52593;42.648;23.332;2022-12-18T07:16:58;95707.66;;;2.49;87.21
65832;BME280;52593;42.648;23.332;2022-12-18T07:19:23;95711.56;;;2.44;86.67
65832;BME280;52593;42.648;23.332;2022-12-18T07:21:50;95715.38;;;2.53;86.06
65832;BME280;52593;42.648;23.332;2022-12-18T07:24:15;95721.72;;;2.63;86.45
65832;BME280;52593;42.648;23.332;2022-12-18T07:26:40;95717.19;;;2.65;86.42
65832;BME280;52593;42.648;23.332;2022-12-18T07:29:06;95724.47;;;2.61;85.48
65832;BME280;52593;42.648;23.332;2022-12-18T07:31:31;95727.75;;;2.65;85.45
65832;BME280;52593;42.648;23.332;2022-12-18T07:33:56;95732.19;;;2.52;85.04
65832;BME280;52593;42.648;23.332;2022-12-18T07:36:22;95733.97;;;2.51;85.53
65832;BME280;52593;42.648;23.332;2022-12-18T07:38:48;95735.88;;;2.62;85.33
65832;BME280;52593;42.648;23.332;2022-12-18T07:41:14;95725.63;;;2.44;85.49
65832;BME280;52593;42.648;23.332;2022-12-18T07:43:40;95743.50;;;2.41;85.36
65832;BME280;52593;42.648;23.332;2022-12-18T07:46:07;95742.31;;;2.45;85.77
65832;BME280;52593;42.648;23.332;2022-12-18T07:48:33;95744.22;;;2.56;85.22
65832;BME280;52593;42.648;23.332;2022-12-18T07:51:03;95741.16;;;2.62;85.19
65832;BME280;52593;42.648;23.332;2022-12-18T07:53:29;95748.69;;;2.68;84.55
65832;BME280;52593;42.648;23.332;2022-12-18T07:55:56;95749.94;;;2.75;84.45
65832;BME280;52593;42.648;23.332;2022-12-18T07:58:22;95752.03;;;2.57;84.42
65832;BME280;52593;42.648;23.332;2022-12-18T08:00:47;95756.06;;;2.50;84.36
65832;BME280;52593;42.648;23.332;2022-12-18T08:03:14;95751.50;;;2.52;84.71
65832;BME280;52593;42.648;23.332;2022-12-18T08:05:39;95765.97;;;2.46;85.02
65832;BME280;52593;42.648;23.332;2022-12-18T08:08:05;95771.06;;;2.37;85.33
65832;BME280;52593;42.648;23.332;2022-12-18T08:10:30;95778.25;;;2.35;84.99
65832;BME280;52593;42.648;23.332;2022-12-18T08:12:55;95777.59;;;2.31;85.82
65832;BME280;52593;42.648;23.332;2022-12-18T08:15:21;95774.31;;;2.27;85.49
65832;BME280;52593;42.648;23.332;2022-12-18T08:17:46;95784.78;;;2.29;85.26
65832;BME280;52593;42.648;23.332;2022-12-18T08:20:12;95791.00;;;2.28;85.89
65832;BME280;52593;42.648;23.332;2022-12-18T08:22:40;95807.03;;;2.25;86.08
65832;BME280;52593;42.648;23.332;2022-12-18T08:25:06;95807.25;;;2.22;85.63
65832;BME280;52593;42.648;23.332;2022-12-18T08:27:32;95807.66;;;2.16;86.11
65832;BME280;52593;42.648;23.332;2022-12-18T08:29:57;95806.91;;;2.13;86.30
65832;BME280;52593;42.648;23.332;2022-12-18T08:32:24;95804.03;;;2.04;86.38
65832;BME280;52593;42.648;23.332;2022-12-18T08:34:49;95815.97;;;2.09;86.55
65832;BME280;52593;42.648;23.332;2022-12-18T08:37:15;95816.53;;;2.14;86.43
65832;BME280;52593;42.648;23.332;2022-12-18T08:39:40;95814.22;;;2.23;86.84
65832;BME280;52593;42.648;23.332;2022-12-18T08:42:05;95811.38;;;2.26;86.77
65832;BME280;52593;42.648;23.332;2022-12-18T08:44:49;95810.13;;;2.31;85.51
65832;BME280;52593;42.648;23.332;2022-12-18T08:47:14;95818.16;;;2.30;85.74
65832;BME280;52593;42.648;23.332;2022-12-18T08:49:40;95817.59;;;2.25;85.78
65832;BME280;52593;42.648;23.332;2022-12-18T08:52:05;95815.84;;;2.25;86.21
65832;BME280;52593;42.648;23.332;2022-12-18T08:54:31;95819.72;;;2.20;86.19
65832;BME280;52593;42.648;23.332;2022-12-18T08:56:56;95814.63;;;2.17;86.58
65832;BME280;52593;42.648;23.332;2022-12-18T08:59:21;95813.28;;;2.24;86.59
65832;BME280;52593;42.648;23.332;2022-12-18T09:01:48;95823.44;;;2.30;86.25
65832;BME280;52593;42.648;23.332;2022-12-18T09:04:13;95812.63;;;2.20;86.31
65832;BME280;52593;42.648;23.332;2022-12-18T09:06:39;95810.56;;;2.25;86.97
65832;BME280;52593;42.648;23.332;2022-12-18T09:09:05;95809.56;;;2.13;86.59
65832;BME280;52593;42.648;23.332;2022-12-18T09:11:32;95817.19;;;2.18;86.64
65832;BME280;52593;42.648;23.332;2022-12-18T09:13:59;95812.53;;;2.22;87.03
65832;BME280;52593;42.648;23.332;2022-12-18T09:16:25;95810.56;;;2.25;86.54
65832;BME280;52593;42.648;23.332;2022-12-18T09:18:51;95816.66;;;2.26;86.77
65832;BME280;52593;42.648;23.332;2022-12-18T09:21:20;95803.59;;;2.37;86.75
65832;BME280;52593;42.648;23.332;2022-12-18T09:23:52;95815.84;;;2.25;85.36
65832;BME280;52593;42.648;23.332;2022-12-18T09:26:19;95813.72;;;2.30;85.84
65832;BME280;52593;42.648;23.332;2022-12-18T09:28:44;95809.59;;;2.26;85.58
65832;BME280;52593;42.648;23.332;2022-12-18T09:31:14;95809.84;;;2.36;85.10
65832;BME280;52593;42.648;23.332;2022-12-18T09:33:40;95807.72;;;2.28;85.02
65832;BME280;52593;42.648;23.332;2022-12-18T09:36:07;95813.00;;;2.28;85.31
65832;BME280;52593;42.648;23.332;2022-12-18T09:38:34;95810.88;;;2.34;85.87
65832;BME280;52593;42.648;23.332;2022-12-18T09:41:39;95825.13;;;2.31;84.59
65832;BME280;52593;42.648;23.332;2022-12-18T09:44:09;95819.69;;;2.47;83.88
65832;BME280;52593;42.648;23.332;2022-12-18T09:46:44;95814.16;;;2.37;82.67
65832;BME280;52593;42.648;23.332;2022-12-18T09:49:17;95812.06;;;2.42;83.30
65832;BME280;52593;42.648;23.332;2022-12-18T09:52:21;95809.13;;;2.60;82.25
65832;BME280;52593;42.648;23.332;2022-12-18T09:54:56;95808.59;;;2.55;82.26
65832;BME280;52593;42.648;23.332;2022-12-18T09:57:24;95811.47;;;2.64;82.30
65832;BME280;52593;42.648;23.332;2022-12-18T10:00:02;95805.13;;;2.80;82.50
65832;BME280;52593;42.648;23.332;2022-12-18T10:02:31;95805.78;;;2.96;81.61
65832;BME280;52593;42.648;23.332;2022-12-18T10:15:21;95811.03;;;2.71;79.49
65832;BME280;52593;42.648;23.332;2022-12-18T10:17:56;95813.06;;;2.67;80.31
65832;BME280;52593;42.648;23.332;2022-12-18T10:20:49;95820.34;;;2.76;79.74
65832;BME280;52593;42.648;23.332;2022-12-18T10:24:00;95818.97;;;2.71;80.49
65832;BME280;52593;42.648;23.332;2022-12-18T10:26:22;95815.59;;;2.81;80.18
65832;BME280;52593;42.648;23.332;2022-12-18T10:28:47;95820.47;;;2.75;80.41
65832;BME280;52593;42.648;23.332;2022-12-18T10:31:14;95818.81;;;2.46;79.16
65832;BME280;52593;42.648;23.332;2022-12-18T10:33:41;95821.56;;;2.45;79.38
65832;BME280;52593;42.648;23.332;2022-12-18T10:36:07;95814.19;;;2.50;79.56
65832;BME280;52593;42.648;23.332;2022-12-18T10:38:33;95818.63;;;2.49;79.34
65832;BME280;52593;42.648;23.332;2022-12-18T10:40:59;95813.63;;;2.45;79.24
65832;BME280;52593;42.648;23.332;2022-12-18T10:51:05;95815.28;;;2.86;77.41
65832;BME280;52593;42.648;23.332;2022-12-18T10:53:33;95814.00;;;2.92;77.46
65832;BME280;52593;42.648;23.332;2022-12-18T10:56:03;95812.31;;;2.91;77.15
65832;BME280;52593;42.648;23.332;2022-12-18T10:58:33;95807.56;;;2.96;76.88
65832;BME280;52593;42.648;23.332;2022-12-18T11:03:36;95800.69;;;2.93;75.78
65832;BME280;52593;42.648;23.332;2022-12-18T11:06:09;95808.41;;;2.71;75.72
65832;BME280;52593;42.648;23.332;2022-12-18T11:08:35;95817.88;;;2.60;75.97
65832;BME280;52593;42.648;23.332;2022-12-18T11:11:01;95809.78;;;2.63;75.85
65832;BME280;52593;42.648;23.332;2022-12-18T11:13:29;95822.44;;;2.58;73.89
65832;BME280;52593;42.648;23.332;2022-12-18T11:15:56;95809.84;;;2.49;74.21
65832;BME280;52593;42.648;23.332;2022-12-18T11:18:32;95809.84;;;2.49;74.13
65832;BME280;52593;42.648;23.332;2022-12-18T11:21:08;95809.94;;;2.47;73.72
65832;BME280;52593;42.648;23.332;2022-12-18T11:23:35;95824.66;;;2.52;74.60
65832;BME280;52593;42.648;23.332;2022-12-18T11:26:03;95805.97;;;2.55;74.38
65832;BME280;52593;42.648;23.332;2022-12-18T11:33:42;95814.13;;;2.90;73.95
65832;BME280;52593;42.648;23.332;2022-12-18T11:36:11;95811.69;;;3.00;73.14
65832;BME280;52593;42.648;23.332;2022-12-18T11:38:40;95814.53;;;2.97;72.76
65832;BME280;52593;42.648;23.332;2022-12-18T11:41:19;95811.38;;;2.92;73.37
65832;BME280;52593;42.648;23.332;2022-12-18T11:43:59;95813.50;;;2.99;72.97
65832;BME280;52593;42.648;23.332;2022-12-18T11:46:37;95822.56;;;2.95;72.45
65832;BME280;52593;42.648;23.332;2022-12-18T11:49:12;95823.31;;;2.84;72.72
65832;BME280;52593;42.648;23.332;2022-12-18T11:52:46;95821.63;;;2.83;71.51
65832;BME280;52593;42.648;23.332;2022-12-18T11:54:40;95828.94;;;2.93;70.76
65832;BME280;52593;42.648;23.332;2022-12-18T12:25:35;95811.47;;;2.77;73.95
65832;BME280;52593;42.648;23.332;2022-12-18T12:29:14;95807.44;;;2.84;73.96
65832;BME280;52593;42.648;23.332;2022-12-18T12:39:12;95825.84;;;2.86;73.80
65832;BME280;52593;42.648;23.332;2022-12-18T12:41:40;95816.44;;;2.95;73.75
65832;BME280;52593;42.648;23.332;2022-12-18T12:44:28;95824.06;;;2.99;74.10
65832;BME280;52593;42.648;23.332;2022-12-18T12:46:58;95816.22;;;3.11;73.69
65832;BME280;52593;42.648;23.332;2022-12-18T12:49:27;95819.09;;;3.20;73.71
65832;BME280;52593;42.648;23.332;2022-12-18T12:54:31;95828.50;;;3.12;74.32
65832;BME280;52593;42.648;23.332;2022-12-18T13:00:07;95834.31;;;3.04;73.99
65832;BME280;52593;42.648;23.332;2022-12-18T13:02:42;95823.00;;;3.02;74.46
65832;BME280;52593;42.648;23.332;2022-12-18T13:05:24;95827.78;;;3.10;74.45
65832;BME280;52593;42.648;23.332;2022-12-18T13:07:57;95833.50;;;3.03;74.76
65832;BME280;52593;42.648;23.332;2022-12-18T13:10:42;95839.41;;;2.94;75.04
65832;BME280;52593;42.648;23.332;2022-12-18T13:13:12;95850.41;;;2.88;75.22
65832;BME280;52593;42.648;23.332;2022-12-18T13:21:13;95856.41;;;2.77;75.67
65832;BME280;52593;42.648;23.332;2022-12-18T13:23:34;95857.56;;;2.73;75.80
65832;BME280;52593;42.648;23.332;2022-12-18T13:31:10;95868.13;;;2.73;75.73
65832;BME280;52593;42.648;23.332;2022-12-18T13:33:39;95870.56;;;2.76;75.77
65832;BME280;52593;42.648;23.332;2022-12-18T13:41:43;95862.84;;;2.86;75.83
65832;BME280;52593;42.648;23.332;2022-12-18T13:44:33;95876.31;;;2.96;75.29
65832;BME280;52593;42.648;23.332;2022-12-18T13:47:00;95878.00;;;2.97;75.16
65832;BME280;52593;42.648;23.332;2022-12-18T13:49:39;95885.09;;;3.09;75.03
65832;BME280;52593;42.648;23.332;2022-12-18T13:52:22;95879.50;;;3.01;74.57
65832;BME280;52593;42.648;23.332;2022-12-18T13:54:54;95877.38;;;3.06;74.84
65832;BME280;52593;42.648;23.332;2022-12-18T13:57:33;95883.41;;;3.08;75.09
65832;BME280;52593;42.648;23.332;2022-12-18T14:00:33;95885.53;;;3.16;75.16
65832;BME280;52593;42.648;23.332;2022-12-18T14:02:58;95887.75;;;3.22;75.64
65832;BME280;52593;42.648;23.332;2022-12-18T14:08:11;95897.91;;;3.28;74.64
65832;BME280;52593;42.648;23.332;2022-12-18T14:10:47;95892.91;;;3.11;75.00
65832;BME280;52593;42.648;23.332;2022-12-18T14:13:26;95891.41;;;2.94;75.44
65832;BME280;52593;42.648;23.332;2022-12-18T14:15:53;95886.75;;;2.84;75.59
65832;BME280;52593;42.648;23.332;2022-12-18T14:18:25;95896.28;;;2.74;74.42
65832;BME280;52593;42.648;23.332;2022-12-18T14:20:57;95917.63;;;2.71;72.96
65832;BME280;52593;42.648;23.332;2022-12-18T14:23:36;95911.25;;;2.61;73.07
65832;BME280;52593;42.648;23.332;2022-12-18T14:32:06;95906.69;;;2.63;72.84
65832;BME280;52593;42.648;23.332;2022-12-18T14:34:32;95914.00;;;2.59;72.89
65832;BME280;52593;42.648;23.332;2022-12-18T14:36:57;95908.94;;;2.69;72.77
65832;BME280;52593;42.648;23.332;2022-12-18T14:39:23;95908.72;;;2.72;72.27
65832;BME280;52593;42.648;23.332;2022-12-18T14:41:50;95907.88;;;2.72;72.17
65832;BME280;52593;42.648;23.332;2022-12-18T14:44:16;95908.00;;;2.70;72.44
65832;BME280;52593;42.648;23.332;2022-12-18T14:46:44;95904.31;;;2.73;72.25
65832;BME280;52593;42.648;23.332;2022-12-18T14:51:53;95908.81;;;2.71;71.88
65832;BME280;52593;42.648;23.332;2022-12-18T14:54:20;95902.06;;;2.66;71.92
65832;BME280;52593;42.648;23.332;2022-12-18T14:56:57;95895.28;;;2.62;71.71
65832;BME280;52593;42.648;23.332;2022-12-18T14:59:26;95905.75;;;2.64;71.32
65832;BME280;52593;42.648;23.332;2022-12-18T15:04:34;95916.44;;;2.62;70.88
65832;BME280;52593;42.648;23.332;2022-12-18T15:10:09;95917.16;;;2.64;70.98
65832;BME280;52593;42.648;23.332;2022-12-18T15:12:44;95919.81;;;2.64;70.83
65832;BME280;52593;42.648;23.332;2022-12-18T15:26:36;95931.19;;;2.52;71.13
65832;BME280;52593;42.648;23.332;2022-12-18T15:29:02;95943.19;;;2.43;71.14
65832;BME280;52593;42.648;23.332;2022-12-18T15:31:33;95943.97;;;2.45;71.56